createdAt,value
2022-09-16T00:01:57.274Z,99240.84
2022-09-16T00:04:28.951Z,99241.89
2022-09-16T00:07:00.505Z,99245.15
2022-09-16T00:09:32.162Z,99243.02
2022-09-16T00:12:04.848Z,99241.67
2022-09-16T00:14:36.699Z,99245.59
2022-09-16T00:17:08.361Z,99250.45
2022-09-16T00:19:40.096Z,99250.71
2022-09-16T00:22:12.007Z,99251.75
2022-09-16T00:24:43.678Z,99261.45
2022-09-16T00:27:15.506Z,99261.52
2022-09-16T00:29:47.153Z,99262.73
2022-09-16T00:32:18.876Z,99268.59
2022-09-16T00:34:50.517Z,99270.23
2022-09-16T00:37:22.120Z,99269.66
2022-09-16T00:39:53.979Z,99269.95
2022-09-16T00:42:25.638Z,99268.91
2022-09-16T00:45:02.114Z,99266.31
2022-09-16T00:47:39.295Z,99263.33
2022-09-16T00:50:15.084Z,99261.08
2022-09-16T00:52:47.099Z,99264.52
2022-09-16T00:55:22.668Z,99262.30
2022-09-16T00:57:56.197Z,99266.88
2022-09-16T01:00:27.903Z,99268.30
2022-09-16T01:02:59.781Z,99264.66
2022-09-16T01:05:32.470Z,99264.09
2022-09-16T01:08:04.530Z,99262.16
2022-09-16T01:10:36.561Z,99266.46
2022-09-16T01:13:12.736Z,99263.95
2022-09-16T01:15:52.904Z,99264.88
2022-09-16T01:18:32.621Z,99265.11
2022-09-16T01:21:26.978Z,99267.81
2022-09-16T01:24:42.020Z,99265.63
2022-09-16T01:27:51.168Z,99266.50
2022-09-16T01:30:53.526Z,99267.20
2022-09-16T01:33:39.832Z,99268.45
2022-09-16T01:36:26.374Z,99267.56
2022-09-16T01:39:10.619Z,99263.42
2022-09-16T01:41:55.826Z,99264.05
2022-09-16T01:44:36.337Z,99262.86
2022-09-16T01:47:13.517Z,99259.92
2022-09-16T01:49:55.223Z,99263.48
2022-09-16T01:52:38.852Z,99263.42
2022-09-16T01:55:15.042Z,99262.02
2022-09-16T01:57:53.249Z,99264.45
2022-09-16T02:00:25.193Z,99265.10
2022-09-16T02:03:01.178Z,99266.73
2022-09-16T02:05:38.116Z,99271.42
2022-09-16T02:08:13.272Z,99269.64
2022-09-16T02:10:50.269Z,99274.98
2022-09-16T02:13:26.880Z,99281.58
2022-09-16T02:16:04.687Z,99275.33
2022-09-16T02:18:42.122Z,99276.50
2022-09-16T02:21:16.885Z,99271.71
2022-09-16T02:23:52.532Z,99271.03
2022-09-16T02:26:28.554Z,99271.27
2022-09-16T02:29:01.747Z,99267.59
2022-09-16T02:31:38.433Z,99265.38
2022-09-16T02:34:13.883Z,99265.44
2022-09-16T02:36:50.093Z,99268.83
2022-09-16T02:39:26.007Z,99269.59
2022-09-16T02:41:58.583Z,99275.80
2022-09-16T02:44:30.620Z,99274.42
2022-09-16T02:47:08.757Z,99274.85
2022-09-16T02:49:46.809Z,99274.27
2022-09-16T02:52:25.022Z,99274.23
2022-09-16T02:55:02.717Z,99276.34
2022-09-16T02:57:34.728Z,99272.25
2022-09-16T03:00:07.935Z,99276.88
2022-09-16T03:02:39.850Z,99277.85
2022-09-16T03:05:11.909Z,99282.23
2022-09-16T03:07:44.360Z,99279.29
2022-09-16T03:10:16.200Z,99281.50
2022-09-16T03:13:02.007Z,99285.24
2022-09-16T03:15:46.878Z,99282.24
2022-09-16T03:18:37.251Z,99287.75
2022-09-16T03:21:18.493Z,99288.73
2022-09-16T03:23:57.916Z,99290.38
2022-09-16T03:26:36.046Z,99292.35
2022-09-16T03:29:18.685Z,99291.48
2022-09-16T03:31:57.716Z,99291.43
2022-09-16T03:34:34.773Z,99287.31
2022-09-16T03:37:18.559Z,99285.60
2022-09-16T03:39:54.391Z,99287.65
2022-09-16T03:42:26.384Z,99290.24
2022-09-16T03:44:58.071Z,99287.63
2022-09-16T03:47:29.845Z,99284.48
2022-09-16T03:50:01.680Z,99281.67
2022-09-16T03:52:33.506Z,99280.04
2022-09-16T03:55:05.412Z,99281.16
2022-09-16T03:57:37.399Z,99282.95
2022-09-16T04:00:12.156Z,99284.05
2022-09-16T04:02:44.042Z,99284.87
2022-09-16T04:05:16.014Z,99279.44
2022-09-16T04:07:49.161Z,99282.18
2022-09-16T04:10:21.430Z,99283.42
2022-09-16T04:12:57.133Z,99287.17
2022-09-16T04:15:29.122Z,99290.81
2022-09-16T04:18:03.015Z,99290.99
2022-09-16T04:20:35.841Z,99290.49
2022-09-16T04:23:05.946Z,99290.76
2022-09-16T04:25:37.658Z,99291.86
2022-09-16T04:28:09.444Z,99291.65
2022-09-16T04:30:41.273Z,99288.25
2022-09-16T04:33:13.297Z,99287.25
2022-09-16T04:35:45.110Z,99292.21
2022-09-16T04:38:16.789Z,99292.23
2022-09-16T04:40:49.004Z,99292.67
2022-09-16T04:43:20.761Z,99296.33
2022-09-16T04:45:54.266Z,99295.09
2022-09-16T04:48:26.364Z,99291.83
2022-09-16T04:51:03.047Z,99290.91
2022-09-16T04:53:34.741Z,99291.06
2022-09-16T04:56:09.460Z,99295.86
2022-09-16T04:58:41.061Z,99296.27
2022-09-16T05:01:14.430Z,99301.10
2022-09-16T05:03:48.392Z,99305.40
2022-09-16T05:06:21.964Z,99307.00
2022-09-16T05:08:55.551Z,99302.22
2022-09-16T05:11:29.708Z,99303.77
2022-09-16T05:14:03.303Z,99307.57
2022-09-16T05:16:35.763Z,99308.44
2022-09-16T05:19:07.452Z,99302.27
2022-09-16T05:21:40.158Z,99302.50
2022-09-16T05:24:11.161Z,99304.52
2022-09-16T05:26:44.437Z,99303.70
2022-09-16T05:29:19.039Z,99304.04
2022-09-16T05:31:50.763Z,99308.61
2022-09-16T05:34:28.461Z,99301.33
2022-09-16T05:37:00.678Z,99306.05
2022-09-16T05:39:32.373Z,99304.02
2022-09-16T05:42:06.009Z,99301.77
2022-09-16T05:44:37.690Z,99304.85
2022-09-16T05:47:10.804Z,99303.20
2022-09-16T05:49:42.846Z,99306.56
2022-09-16T05:52:14.481Z,99309.38
2022-09-16T05:54:46.075Z,99305.77
2022-09-16T05:57:17.694Z,99309.49
2022-09-16T05:59:49.465Z,99309.92
2022-09-16T06:02:21.174Z,99315.45
2022-09-16T06:04:53.248Z,99308.79
2022-09-16T06:07:24.917Z,99310.73
2022-09-16T06:09:56.528Z,99310.73
2022-09-16T06:12:28.268Z,99314.92
2022-09-16T06:15:00.518Z,99308.29
2022-09-16T06:17:32.245Z,99305.10
2022-09-16T06:20:04.490Z,99307.30
2022-09-16T06:22:36.610Z,99303.00
2022-09-16T06:25:09.749Z,99302.70
2022-09-16T06:27:41.506Z,99296.98
2022-09-16T06:30:14.090Z,99298.49
2022-09-16T06:32:45.801Z,99293.55
2022-09-16T06:35:17.475Z,99293.00
2022-09-16T06:37:49.164Z,99289.87
2022-09-16T06:40:21.480Z,99289.91
2022-09-16T06:42:59.482Z,99294.84
2022-09-16T06:45:31.871Z,99289.06
2022-09-16T06:48:04.134Z,99286.17
2022-09-16T06:50:35.749Z,99287.64
2022-09-16T06:53:07.354Z,99293.77
2022-09-16T06:55:38.964Z,99295.41
2022-09-16T06:58:10.571Z,99297.96
2022-09-16T07:00:43.115Z,99300.98
2022-09-16T07:03:14.879Z,99295.60
2022-09-16T07:05:56.583Z,99293.77
2022-09-16T07:08:29.179Z,99302.09
2022-09-16T07:11:02.661Z,99304.93
2022-09-16T07:13:35.248Z,99302.89
2022-09-16T07:16:13.221Z,99305.66
2022-09-16T07:18:46.959Z,99304.37
2022-09-16T07:21:17.937Z,99310.48
2022-09-16T07:23:50.876Z,99308.04
2022-09-16T07:26:26.274Z,99310.25
2022-09-16T07:29:00.329Z,99305.13
2022-09-16T07:31:34.468Z,99300.48
2022-09-16T07:34:08.359Z,99312.06
2022-09-16T07:36:41.899Z,99305.14
2022-09-16T07:39:14.745Z,99301.41
2022-09-16T07:41:48.411Z,99302.89
2022-09-16T07:44:21.973Z,99304.67
2022-09-16T07:46:53.633Z,99312.98
2022-09-16T07:49:25.520Z,99313.77
2022-09-16T07:51:57.151Z,99317.19
2022-09-16T07:54:28.992Z,99320.31
2022-09-16T07:57:01.203Z,99315.19
2022-09-16T07:59:33.135Z,99317.19
2022-09-16T08:02:05.330Z,99319.81
2022-09-16T08:04:37.336Z,99321.50
2022-09-16T08:07:09.648Z,99319.88
2022-09-16T08:09:43.401Z,99317.16
2022-09-16T08:12:21.614Z,99315.09
2022-09-16T08:14:53.253Z,99311.02
2022-09-16T08:17:24.921Z,99315.42
2022-09-16T08:19:56.588Z,99316.27
2022-09-16T08:22:28.349Z,99309.95
2022-09-16T08:25:00.090Z,99309.51
2022-09-16T08:27:32.055Z,99314.35
2022-09-16T08:30:04.877Z,99305.86
2022-09-16T08:32:36.803Z,99307.17
2022-09-16T08:35:10.880Z,99309.73
2022-09-16T08:37:44.965Z,99308.76
2022-09-16T08:43:05.505Z,99314.38
2022-09-16T08:45:44.316Z,99316.33
2022-09-16T08:48:32.633Z,99307.13
2022-09-16T08:51:06.172Z,99314.52
2022-09-16T08:53:43.509Z,99313.73
2022-09-16T08:56:18.886Z,99318.08
2022-09-16T08:58:54.726Z,99318.55
2022-09-16T09:01:33.778Z,99309.52
2022-09-16T09:04:06.452Z,99301.41
2022-09-16T09:06:57.529Z,99305.58
2022-09-16T09:09:44.826Z,99308.83
2022-09-16T09:12:22.070Z,99309.29
2022-09-16T09:15:08.390Z,99302.95
2022-09-16T09:17:54.739Z,99295.34
2022-09-16T09:20:38.672Z,99301.81
2022-09-16T09:23:25.722Z,99297.62
2022-09-16T09:26:11.379Z,99304.81
2022-09-16T09:29:01.003Z,99292.71
2022-09-16T09:31:41.716Z,99298.56
2022-09-16T09:34:27.736Z,99292.16
2022-09-16T09:37:17.597Z,99292.86
2022-09-16T09:40:00.896Z,99295.45
2022-09-16T09:42:36.996Z,99292.97
2022-09-16T09:45:20.297Z,99294.45
2022-09-16T09:47:56.812Z,99293.18
2022-09-16T09:50:34.718Z,99297.86
2022-09-16T09:53:15.825Z,99289.73
2022-09-16T09:55:47.539Z,99289.73
2022-09-16T09:58:30.090Z,99286.94
2022-09-16T10:01:02.300Z,99283.81
2022-09-16T10:03:34.119Z,99287.58
2022-09-16T10:06:06.256Z,99284.28
2022-09-16T10:08:47.237Z,99287.89
2022-09-16T10:11:21.229Z,99284.00
2022-09-16T10:13:55.422Z,99284.91
2022-09-16T10:16:31.958Z,99287.33
2022-09-16T10:19:08.957Z,99287.30
2022-09-16T10:21:47.788Z,99284.05
2022-09-16T10:24:36.919Z,99279.50
2022-09-16T10:27:24.108Z,99282.77
2022-09-16T10:30:13.641Z,99285.25
2022-09-16T10:32:56.711Z,99286.88
2022-09-16T10:35:28.152Z,99284.98
2022-09-16T10:38:05.225Z,99283.61
2022-09-16T10:40:37.692Z,99290.11
2022-09-16T10:43:16.069Z,99293.01
2022-09-16T10:45:50.607Z,99294.51
2022-09-16T10:48:25.265Z,99293.86
2022-09-16T10:50:59.485Z,99294.54
2022-09-16T10:53:39.581Z,99290.89
2022-09-16T10:56:22.916Z,99303.35
2022-09-16T10:59:10.922Z,99291.94
2022-09-16T11:01:54.471Z,99291.40
2022-09-16T11:04:50.220Z,99290.41
2022-09-16T11:07:34.722Z,99293.91
2022-09-16T11:10:18.954Z,99291.09
2022-09-16T11:13:19.253Z,99287.68
2022-09-16T11:16:09.047Z,99287.83
2022-09-16T11:18:55.299Z,99292.36
2022-09-16T11:21:42.219Z,99297.20
2022-09-16T11:24:44.827Z,99297.07
2022-09-16T11:27:29.903Z,99295.99
2022-09-16T11:30:10.723Z,99287.23
2022-09-16T11:33:05.637Z,99288.25
2022-09-16T11:35:48.565Z,99285.02
2022-09-16T11:38:27.768Z,99284.91
2022-09-16T11:41:04.890Z,99275.95
2022-09-16T11:44:00.659Z,99274.82
2022-09-16T11:46:40.704Z,99262.11
2022-09-16T11:49:29.882Z,99262.83
2022-09-16T11:52:18.899Z,99258.20
2022-09-16T11:55:11.408Z,99267.96
2022-09-16T11:57:51.100Z,99266.80
2022-09-16T12:00:23.004Z,99268.55
2022-09-16T12:03:01.437Z,99270.82
2022-09-16T12:05:43.310Z,99265.48
2022-09-16T12:08:23.184Z,99271.83
2022-09-16T12:11:01.718Z,99258.45
2022-09-16T12:13:41.880Z,99251.27
2022-09-16T12:16:18.130Z,99262.08
2022-09-16T12:18:53.636Z,99256.38
2022-09-16T12:21:29.533Z,99266.36
2022-09-16T12:24:05.257Z,99259.44
2022-09-16T12:26:42.110Z,99250.20
2022-09-16T12:29:19.607Z,99247.27
2022-09-16T12:31:57.018Z,99241.33
2022-09-16T12:34:34.331Z,99254.04
2022-09-16T12:37:24.262Z,99237.40
2022-09-16T12:39:56.134Z,99226.69
2022-09-16T12:42:51.847Z,99228.60
2022-09-16T12:45:52.799Z,99229.93
2022-09-16T12:48:41.443Z,99230.92
2022-09-16T12:51:32.876Z,99236.77
2022-09-16T12:55:03.972Z,99225.73
2022-09-16T12:57:49.179Z,99220.73
2022-09-16T13:00:25.685Z,99221.89
2022-09-16T13:03:00.656Z,99221.97
2022-09-16T13:05:36.155Z,99215.40
2022-09-16T13:08:23.736Z,99212.95
2022-09-16T13:11:38.714Z,99211.20
2022-09-16T13:13:56.282Z,99212.00
2022-09-16T13:16:33.685Z,99205.65
2022-09-16T13:19:30.384Z,99199.45
2022-09-16T13:22:13.526Z,99195.54
2022-09-16T13:24:50.878Z,99196.98
2022-09-16T13:27:31.939Z,99200.80
2022-09-16T13:30:17.559Z,99199.17
2022-09-16T13:33:04.829Z,99201.49
2022-09-16T13:35:42.613Z,99199.12
2022-09-16T13:38:38.825Z,99194.69
2022-09-16T13:41:14.664Z,99197.84
2022-09-16T13:43:54.863Z,99196.20
2022-09-16T13:46:36.311Z,99198.80
2022-09-16T13:49:21.170Z,99200.06
2022-09-16T13:51:53.855Z,99197.71
2022-09-16T13:54:43.178Z,99196.45
2022-09-16T13:57:45.796Z,99198.36
2022-09-16T14:00:22.445Z,99198.78
2022-09-16T14:03:22.696Z,99208.67
2022-09-16T14:06:11.380Z,99214.11
2022-09-16T14:08:51.603Z,99206.70
2022-09-16T14:11:34.617Z,99201.58
2022-09-16T14:14:29.855Z,99201.88
2022-09-16T14:17:05.701Z,99205.45
2022-09-16T14:19:41.220Z,99210.06
2022-09-16T14:22:17.922Z,99209.70
2022-09-16T14:24:56.584Z,99201.46
2022-09-16T14:30:22.885Z,99207.88
2022-09-16T14:32:54.741Z,99204.89
2022-09-16T14:35:27.838Z,99206.73
2022-09-16T14:38:04.633Z,99205.93
2022-09-16T14:40:40.625Z,99212.09
2022-09-16T14:43:21.232Z,99209.86
2022-09-16T14:48:39.246Z,99199.31
2022-09-16T14:51:20.880Z,99195.57
2022-09-16T14:54:11.586Z,99197.69
2022-09-16T14:56:55.802Z,99200.00
2022-09-16T14:59:31.263Z,99193.77
2022-09-16T15:02:08.473Z,99189.09
2022-09-16T15:04:43.937Z,99191.20
2022-09-16T15:07:22.847Z,99193.89
2022-09-16T15:09:59.466Z,99187.11
2022-09-16T15:12:34.527Z,99187.62
2022-09-16T15:15:15.982Z,99193.91
2022-09-16T15:17:58.416Z,99183.28
2022-09-16T15:20:34.475Z,99182.14
2022-09-16T15:23:12.725Z,99183.20
2022-09-16T15:25:55.565Z,99180.88
2022-09-16T15:28:27.442Z,99178.39
2022-09-16T15:30:59.670Z,99179.02
2022-09-16T15:33:37.682Z,99177.66
2022-09-16T15:36:35.614Z,99171.21
2022-09-16T15:39:22.617Z,99173.42
2022-09-16T15:42:10.804Z,99172.45
2022-09-16T15:44:50.064Z,99162.23
2022-09-16T15:47:25.766Z,99162.10
2022-09-16T15:50:04.422Z,99156.04
2022-09-16T15:52:51.531Z,99160.02
2022-09-16T15:55:37.456Z,99165.70
2022-09-16T15:58:17.060Z,99163.85
2022-09-16T16:01:03.877Z,99165.73
2022-09-16T16:03:47.568Z,99163.44
2022-09-16T16:06:19.418Z,99163.92
2022-09-16T16:08:54.752Z,99164.94
2022-09-16T16:11:26.755Z,99161.69
2022-09-16T16:14:01.949Z,99159.84
2022-09-16T16:16:45.710Z,99158.62
2022-09-16T16:19:28.761Z,99157.20
2022-09-16T16:22:00.728Z,99153.10
2022-09-16T16:24:33.303Z,99153.74
2022-09-16T16:27:05.403Z,99153.83
2022-09-16T16:29:38.882Z,99154.13
2022-09-16T16:32:13.694Z,99147.98
2022-09-16T16:34:47.313Z,99154.40
2022-09-16T16:37:44.430Z,99157.78
2022-09-16T16:40:12.304Z,99152.45
2022-09-16T16:42:44.656Z,99150.15
2022-09-16T16:45:17.125Z,99155.02
2022-09-16T16:47:47.702Z,99151.27
2022-09-16T16:50:19.641Z,99146.77
2022-09-16T16:52:54.042Z,99145.13
2022-09-16T16:55:26.186Z,99149.64
2022-09-16T16:57:58.228Z,99153.65
2022-09-16T17:00:29.817Z,99150.42
2022-09-16T17:03:01.435Z,99151.90
2022-09-16T17:05:33.173Z,99154.66
2022-09-16T17:08:05.064Z,99158.38
2022-09-16T17:10:36.808Z,99159.37
2022-09-16T17:13:08.593Z,99162.67
2022-09-16T17:15:40.660Z,99166.38
2022-09-16T17:18:12.421Z,99166.92
2022-09-16T17:20:44.166Z,99170.46
2022-09-16T17:23:15.854Z,99167.98
2022-09-16T17:25:51.737Z,99169.96
2022-09-16T17:28:23.555Z,99166.79
2022-09-16T17:30:55.663Z,99174.98
2022-09-16T17:33:27.713Z,99174.51
2022-09-16T17:36:07.768Z,99174.90
2022-09-16T17:38:39.455Z,99177.00
2022-09-16T17:41:13.013Z,99179.84
2022-09-16T17:43:45.939Z,99178.19
2022-09-16T17:46:20.366Z,99176.25
2022-09-16T17:48:52.816Z,99174.48
2022-09-16T17:51:25.021Z,99174.30
2022-09-16T17:53:56.541Z,99176.88
2022-09-16T17:56:28.330Z,99172.95
2022-09-16T17:59:00.164Z,99173.69
2022-09-16T18:01:31.994Z,99171.24
2022-09-16T18:04:04.730Z,99179.91
2022-09-16T18:06:43.484Z,99183.23
2022-09-16T18:09:17.216Z,99186.21
2022-09-16T18:11:49.160Z,99185.66
2022-09-16T18:14:23.420Z,99184.52
2022-09-16T18:16:56.197Z,99186.48
2022-09-16T18:19:28.234Z,99182.45
2022-09-16T18:22:00.065Z,99182.89
2022-09-16T18:24:31.883Z,99183.81
2022-09-16T18:27:03.529Z,99187.20
2022-09-16T18:29:35.440Z,99185.65
2022-09-16T18:32:08.733Z,99177.30
2022-09-16T18:34:40.452Z,99178.90
2022-09-16T18:37:13.172Z,99178.52
2022-09-16T18:39:43.304Z,99171.14
2022-09-16T18:42:15.361Z,99178.36
2022-09-16T18:44:48.030Z,99172.30
2022-09-16T18:47:18.340Z,99176.27
2022-09-16T18:49:50.054Z,99180.84
2022-09-16T18:52:22.856Z,99175.70
2022-09-16T18:54:54.951Z,99180.90
2022-09-16T18:57:26.629Z,99178.92
2022-09-16T18:59:58.348Z,99178.33
2022-09-16T19:02:30.187Z,99176.42
2022-09-16T19:05:02.065Z,99178.05
2022-09-16T19:07:33.753Z,99175.34
2022-09-16T19:10:05.891Z,99172.75
2022-09-16T19:12:39.334Z,99169.52
2022-09-16T19:15:13.422Z,99170.23
2022-09-16T19:17:45.153Z,99176.32
2022-09-16T19:20:17.365Z,99174.13
2022-09-16T19:22:49.085Z,99176.77
2022-09-16T19:25:20.842Z,99178.23
2022-09-16T19:27:53.177Z,99179.77
2022-09-16T19:30:26.394Z,99181.27
2022-09-16T19:32:59.236Z,99179.52
2022-09-16T19:35:34.333Z,99179.45
2022-09-16T19:38:06.389Z,99183.91
2022-09-16T19:40:38.630Z,99181.36
2022-09-16T19:43:10.417Z,99179.98
2022-09-16T19:45:42.719Z,99175.92
2022-09-16T19:48:15.394Z,99179.64
2022-09-16T19:50:53.974Z,99180.20
2022-09-16T19:53:26.054Z,99180.10
2022-09-16T19:56:03.250Z,99177.98
2022-09-16T19:58:37.081Z,99180.13
2022-09-16T20:01:10.733Z,99177.58
2022-09-16T20:03:44.604Z,99175.63
2022-09-16T20:06:19.008Z,99175.46
2022-09-16T20:08:53.841Z,99176.68
2022-09-16T20:11:27.572Z,99175.14
2022-09-16T20:14:01.187Z,99168.17
2022-09-16T20:16:36.795Z,99168.42
2022-09-16T20:19:10.598Z,99163.59
2022-09-16T20:21:43.098Z,99163.22
2022-09-16T20:24:19.177Z,99161.20
2022-09-16T20:26:57.921Z,99164.90
2022-09-16T20:29:30.871Z,99166.14
2022-09-16T20:32:04.039Z,99164.15
2022-09-16T20:34:35.879Z,99164.98
2022-09-16T20:37:08.097Z,99166.70
2022-09-16T20:39:41.209Z,99168.14
2022-09-16T20:42:12.889Z,99171.55
2022-09-16T20:44:48.851Z,99172.73
2022-09-16T20:47:21.589Z,99180.61
2022-09-16T20:49:53.645Z,99180.23
2022-09-16T20:52:25.726Z,99174.39
2022-09-16T20:54:57.819Z,99176.10
2022-09-16T20:57:29.770Z,99175.89
2022-09-16T21:00:01.777Z,99176.16
2022-09-16T21:02:33.583Z,99176.73
2022-09-16T21:05:05.719Z,99173.04
2022-09-16T21:07:37.740Z,99174.38
2022-09-16T21:10:11.148Z,99176.98
2022-09-16T21:12:42.831Z,99176.03
2022-09-16T21:15:16.264Z,99174.47
2022-09-16T21:17:47.893Z,99173.23
2022-09-16T21:20:20.362Z,99174.33
2022-09-16T21:22:52.016Z,99171.89
2022-09-16T21:25:24.623Z,99167.69
2022-09-16T21:27:57.049Z,99172.09
2022-09-16T21:30:30.500Z,99173.97
2022-09-16T21:33:02.777Z,99170.95
2022-09-16T21:35:34.565Z,99174.80
2022-09-16T21:38:06.289Z,99173.67
2022-09-16T21:40:39.954Z,99173.30
2022-09-16T21:43:12.254Z,99175.94
2022-09-16T21:45:47.213Z,99178.17
2022-09-16T21:48:19.585Z,99179.34
2022-09-16T21:50:54.453Z,99182.92
2022-09-16T21:53:26.225Z,99183.16
2022-09-16T21:56:04.537Z,99184.38
2022-09-16T21:58:36.696Z,99183.23
2022-09-16T22:01:11.487Z,99179.73
2022-09-16T22:03:45.234Z,99181.27
2022-09-16T22:06:19.269Z,99179.11
2022-09-16T22:08:51.156Z,99175.95
2022-09-16T22:11:25.144Z,99175.18
2022-09-16T22:14:00.575Z,99176.20
2022-09-16T22:16:34.347Z,99173.00
2022-09-16T22:19:08.569Z,99171.40
2022-09-16T22:21:43.074Z,99172.05
2022-09-16T22:24:16.262Z,99171.46
2022-09-16T22:26:48.897Z,99173.07
2022-09-16T22:29:21.056Z,99174.61
2022-09-16T22:31:52.950Z,99170.20
2022-09-16T22:34:24.702Z,99170.88
2022-09-16T22:36:56.794Z,99164.60
2022-09-16T22:39:28.651Z,99164.36
2022-09-16T22:42:00.273Z,99163.23
2022-09-16T22:44:32.103Z,99159.59
2022-09-16T22:47:03.809Z,99158.39
2022-09-16T22:49:35.591Z,99157.98
2022-09-16T22:52:07.244Z,99156.30
2022-09-16T22:54:38.889Z,99154.50
2022-09-16T22:57:10.529Z,99156.46
2022-09-16T22:59:42.235Z,99155.36
2022-09-16T23:02:16.243Z,99153.65
2022-09-16T23:04:48.019Z,99151.62
2022-09-16T23:07:19.728Z,99151.95
2022-09-16T23:09:51.378Z,99146.70
2022-09-16T23:12:23.091Z,99139.73
2022-09-16T23:14:54.799Z,99143.33
2022-09-16T23:17:26.466Z,99142.06
2022-09-16T23:19:58.317Z,99137.73
2022-09-16T23:22:30.586Z,99129.98
2022-09-16T23:25:02.284Z,99133.91
2022-09-16T23:27:34.917Z,99127.58
2022-09-16T23:30:07.902Z,99131.41
2022-09-16T23:32:39.600Z,99132.63
2022-09-16T23:35:12.295Z,99128.19
2022-09-16T23:37:42.545Z,99129.33
2022-09-16T23:40:15.025Z,99125.50
2022-09-16T23:42:46.687Z,99126.95
2022-09-16T23:45:18.561Z,99124.13
2022-09-16T23:47:50.277Z,99123.20
2022-09-16T23:50:21.998Z,99116.65
2022-09-16T23:52:54.177Z,99112.80
2022-09-16T23:55:26.069Z,99114.71
2022-09-16T23:57:57.864Z,99111.13
